createdAt,value
2018-06-29T00:02:25.147Z,100934.38
2018-06-29T00:04:53.552Z,100937.34
2018-06-29T00:07:21.715Z,100932.11
2018-06-29T00:09:49.983Z,100929.48
2018-06-29T00:12:18.213Z,100928.06
2018-06-29T00:14:46.823Z,100926.05
2018-06-29T00:17:15.008Z,100911.70
2018-06-29T00:19:43.291Z,100913.62
2018-06-29T00:22:11.649Z,100912.92
2018-06-29T00:24:40.037Z,100907.09
2018-06-29T00:27:08.480Z,100917.02
2018-06-29T00:29:36.890Z,100911.06
2018-06-29T00:32:05.363Z,100916.61
2018-06-29T00:34:34.367Z,100921.97
2018-06-29T00:37:02.415Z,100915.95
2018-06-29T00:39:30.820Z,100922.30
2018-06-29T00:41:58.881Z,100922.08
2018-06-29T00:44:26.920Z,100923.66
2018-06-29T00:46:55.072Z,100922.45
2018-06-29T00:49:23.111Z,100916.41
2018-06-29T00:51:51.357Z,100914.83
2018-06-29T00:54:19.727Z,100914.16
2018-06-29T00:56:47.934Z,100904.52
2018-06-29T00:59:16.186Z,100908.02
2018-06-29T01:01:44.315Z,100909.92
2018-06-29T01:04:12.463Z,100902.38
2018-06-29T01:06:40.499Z,100902.16
2018-06-29T01:09:10.399Z,100896.39
2018-06-29T01:11:38.435Z,100900.87
2018-06-29T01:14:06.742Z,100898.25
2018-06-29T01:16:34.877Z,100899.15
2018-06-29T01:19:02.916Z,100906.83
2018-06-29T01:21:30.972Z,100905.80
2018-06-29T01:23:59.007Z,100906.33
2018-06-29T01:26:27.036Z,100911.57
2018-06-29T01:28:55.102Z,100906.13
2018-06-29T01:31:23.132Z,100906.67
2018-06-29T01:33:51.181Z,100904.28
2018-06-29T01:36:19.389Z,100907.42
2018-06-29T01:38:47.534Z,100906.79
2018-06-29T01:41:15.775Z,100912.75
2018-06-29T01:43:44.020Z,100916.07
2018-06-29T01:46:12.061Z,100914.04
2018-06-29T01:48:40.089Z,100915.37
2018-06-29T01:51:08.224Z,100920.31
2018-06-29T01:53:36.236Z,100916.70
2018-06-29T01:56:04.255Z,100908.13
2018-06-29T01:58:32.297Z,100904.70
2018-06-29T02:01:00.336Z,100907.88
2018-06-29T02:03:28.368Z,100909.86
2018-06-29T02:05:56.387Z,100913.00
2018-06-29T02:08:24.604Z,100908.41
2018-06-29T02:10:52.679Z,100909.80
2018-06-29T02:13:20.772Z,100910.78
2018-06-29T02:15:48.923Z,100908.31
2018-06-29T02:18:17.136Z,100900.44
2018-06-29T02:20:45.313Z,100890.59
2018-06-29T02:23:13.531Z,100889.12
2018-06-29T02:25:41.685Z,100882.33
2018-06-29T02:28:09.939Z,100891.09
2018-06-29T02:30:38.096Z,100894.23
2018-06-29T02:33:06.258Z,100889.87
2018-06-29T02:35:34.302Z,100891.62
2018-06-29T02:38:02.348Z,100885.86
2018-06-29T02:40:30.423Z,100882.80
2018-06-29T02:42:58.439Z,100880.36
2018-06-29T02:45:26.814Z,100886.77
2018-06-29T02:47:54.820Z,100888.16
2018-06-29T02:50:22.844Z,100888.91
2018-06-29T02:52:50.952Z,100887.67
2018-06-29T02:55:18.992Z,100884.90
2018-06-29T02:57:47.030Z,100889.66
2018-06-29T03:00:15.052Z,100895.20
2018-06-29T03:02:43.144Z,100890.06
2018-06-29T03:05:11.176Z,100894.23
2018-06-29T03:07:39.192Z,100899.48
2018-06-29T03:10:07.224Z,100904.23
2018-06-29T03:12:35.236Z,100903.00
2018-06-29T03:15:03.267Z,100901.03
2018-06-29T03:17:31.284Z,100895.09
2018-06-29T03:19:59.291Z,100892.27
2018-06-29T03:22:27.399Z,100889.62
2018-06-29T03:24:55.834Z,100879.64
2018-06-29T03:27:23.847Z,100881.52
2018-06-29T03:29:51.904Z,100885.52
2018-06-29T03:32:19.928Z,100881.16
2018-06-29T03:34:47.948Z,100892.95
2018-06-29T03:37:16.006Z,100896.59
2018-06-29T03:39:44.064Z,100894.20
2018-06-29T03:42:12.116Z,100889.23
2018-06-29T03:44:40.355Z,100888.42
2018-06-29T03:47:08.382Z,100892.01
2018-06-29T03:49:36.419Z,100883.03
2018-06-29T03:52:04.466Z,100884.90
2018-06-29T03:54:32.495Z,100878.20
2018-06-29T03:57:00.540Z,100885.05
2018-06-29T03:59:28.748Z,100881.52
2018-06-29T04:01:56.860Z,100884.52
2018-06-29T04:04:24.911Z,100881.97
2018-06-29T04:06:52.959Z,100877.41
2018-06-29T04:09:20.994Z,100885.91
2018-06-29T04:11:49.225Z,100879.94
2018-06-29T04:14:17.200Z,100884.30
2018-06-29T04:16:45.230Z,100879.86
2018-06-29T04:19:13.616Z,100878.41
2018-06-29T04:21:41.647Z,100874.02
2018-06-29T04:24:09.667Z,100875.45
2018-06-29T04:26:38.015Z,100877.53
2018-06-29T04:29:06.040Z,100868.86
2018-06-29T04:31:34.084Z,100869.98
2018-06-29T04:34:02.199Z,100865.19
2018-06-29T04:36:30.548Z,100863.38
2018-06-29T04:38:58.616Z,100861.73
2018-06-29T04:41:26.651Z,100858.91
2018-06-29T04:43:54.708Z,100854.47
2018-06-29T04:46:22.915Z,100859.78
2018-06-29T04:48:50.961Z,100864.72
2018-06-29T04:51:19.081Z,100854.14
2018-06-29T04:53:47.187Z,100861.45
2018-06-29T04:56:15.295Z,100854.75
2018-06-29T04:58:43.477Z,100847.45
2018-06-29T05:01:11.878Z,100844.30
2018-06-29T05:03:40.295Z,100855.05
2018-06-29T05:06:08.507Z,100844.91
2018-06-29T05:08:36.547Z,100849.91
2018-06-29T05:11:04.612Z,100847.34
2018-06-29T05:13:32.679Z,100851.30
2018-06-29T05:16:01.077Z,100847.88
2018-06-29T05:18:29.129Z,100857.20
2018-06-29T05:20:58.143Z,100846.75
2018-06-29T05:23:26.184Z,100847.91
2018-06-29T05:25:54.762Z,100844.59
2018-06-29T05:28:22.810Z,100850.55
2018-06-29T05:30:50.951Z,100842.68
2018-06-29T05:33:19.431Z,100845.52
2018-06-29T05:35:47.645Z,100840.87
2018-06-29T05:38:15.787Z,100837.33
2018-06-29T05:40:44.014Z,100846.36
2018-06-29T05:43:12.529Z,100835.02
2018-06-29T05:45:41.023Z,100836.56
2018-06-29T05:48:09.521Z,100842.04
2018-06-29T05:50:38.696Z,100842.51
2018-06-29T05:53:07.089Z,100849.06
2018-06-29T05:55:35.145Z,100846.84
2018-06-29T05:58:03.190Z,100840.20
2018-06-29T06:00:31.223Z,100842.11
2018-06-29T06:02:59.290Z,100836.10
2018-06-29T06:05:27.324Z,100837.83
2018-06-29T06:07:55.406Z,100833.56
2018-06-29T06:10:23.488Z,100838.96
2018-06-29T06:12:51.871Z,100833.58
2018-06-29T06:15:20.083Z,100838.34
2018-06-29T06:17:48.389Z,100837.50
2018-06-29T06:20:16.891Z,100839.92
2018-06-29T06:22:45.352Z,100838.23
2018-06-29T06:25:13.505Z,100846.05
2018-06-29T06:27:41.702Z,100848.44
2018-06-29T06:30:10.006Z,100848.07
2018-06-29T06:32:40.570Z,100833.72
2018-06-29T06:35:08.683Z,100845.88
2018-06-29T06:37:36.955Z,100844.45
2018-06-29T06:40:05.244Z,100843.84
2018-06-29T06:42:33.283Z,100852.31
2018-06-29T06:45:01.316Z,100844.50
2018-06-29T06:47:29.391Z,100840.87
2018-06-29T06:49:57.420Z,100833.56
2018-06-29T06:52:25.444Z,100828.75
2018-06-29T06:54:53.484Z,100823.55
2018-06-29T06:57:21.542Z,100831.16
2018-06-29T06:59:50.176Z,100820.68
2018-06-29T07:02:18.395Z,100815.58
2018-06-29T07:04:46.632Z,100823.39
2018-06-29T07:07:14.821Z,100825.11
2018-06-29T07:09:43.207Z,100822.31
2018-06-29T07:12:11.257Z,100825.27
2018-06-29T07:14:39.640Z,100821.38
2018-06-29T07:17:08.763Z,100820.53
2018-06-29T07:19:36.836Z,100818.75
2018-06-29T07:22:04.992Z,100813.95
2018-06-29T07:24:33.122Z,100818.75
2018-06-29T07:27:01.046Z,100815.81
2018-06-29T07:29:29.084Z,100807.25
2018-06-29T07:31:57.132Z,100812.32
2018-06-29T07:34:25.159Z,100803.48
2018-06-29T07:36:53.196Z,100804.11
2018-06-29T07:39:21.428Z,100801.66
2018-06-29T07:41:49.572Z,100807.18
2018-06-29T07:44:17.845Z,100806.97
2018-06-29T07:46:46.332Z,100799.16
2018-06-29T07:49:14.478Z,100800.19
2018-06-29T07:51:42.970Z,100799.91
2018-06-29T07:54:11.368Z,100800.33
2018-06-29T07:56:39.790Z,100794.97
2018-06-29T07:59:08.016Z,100798.66
2018-06-29T08:01:36.111Z,100802.51
2018-06-29T08:04:04.177Z,100808.02
2018-06-29T08:06:32.194Z,100805.03
2018-06-29T08:09:00.220Z,100806.46
2018-06-29T08:11:28.264Z,100806.09
2018-06-29T08:13:56.279Z,100802.59
2018-06-29T08:16:24.384Z,100796.74
2018-06-29T08:18:52.451Z,100786.78
2018-06-29T08:21:20.736Z,100787.13
2018-06-29T08:23:49.070Z,100791.23
2018-06-29T08:26:24.128Z,100784.27
2018-06-29T08:28:52.210Z,100785.70
2018-06-29T08:31:20.363Z,100781.47
2018-06-29T08:33:48.453Z,100780.66
2018-06-29T08:36:16.673Z,100786.06
2018-06-29T08:38:45.263Z,100789.00
2018-06-29T08:41:19.106Z,100781.25
2018-06-29T08:43:47.453Z,100780.75
2018-06-29T08:46:15.512Z,100778.48
2018-06-29T08:48:43.520Z,100776.70
2018-06-29T08:51:11.553Z,100771.23
2018-06-29T08:53:39.563Z,100763.77
2018-06-29T08:56:08.015Z,100773.94
2018-06-29T08:58:36.047Z,100779.09
2018-06-29T09:01:04.102Z,100775.70
2018-06-29T09:03:32.120Z,100772.86
2018-06-29T09:06:00.148Z,100774.11
2018-06-29T09:08:28.184Z,100761.39
2018-06-29T09:10:56.277Z,100766.06
2018-06-29T09:13:24.495Z,100766.77
2018-06-29T09:15:52.525Z,100756.80
2018-06-29T09:18:20.586Z,100763.13
2018-06-29T09:20:48.620Z,100758.81
2018-06-29T09:23:16.644Z,100750.58
2018-06-29T09:25:44.691Z,100760.00
2018-06-29T09:28:12.711Z,100758.58
2018-06-29T09:30:40.767Z,100756.67
2018-06-29T09:33:08.801Z,100752.73
2018-06-29T09:35:36.852Z,100746.28
2018-06-29T09:38:04.907Z,100748.00
2018-06-29T09:40:32.971Z,100746.27
2018-06-29T09:43:01.116Z,100741.11
2018-06-29T09:45:29.176Z,100745.90
2018-06-29T09:47:57.325Z,100734.26
2018-06-29T09:50:25.315Z,100725.97
2018-06-29T09:52:53.740Z,100725.77
2018-06-29T09:55:21.772Z,100720.67
2018-06-29T09:57:49.904Z,100714.80
2018-06-29T10:00:22.355Z,100712.56
2018-06-29T10:02:50.399Z,100709.33
2018-06-29T10:05:18.439Z,100702.84
2018-06-29T10:07:46.497Z,100696.55
2018-06-29T10:10:14.519Z,100696.45
2018-06-29T10:12:42.569Z,100692.41
2018-06-29T10:15:10.587Z,100695.47
2018-06-29T10:17:38.648Z,100695.44
2018-06-29T10:20:06.816Z,100697.06
2018-06-29T10:22:34.755Z,100697.51
2018-06-29T10:25:02.833Z,100692.59
2018-06-29T10:27:30.825Z,100692.94
2018-06-29T10:29:58.843Z,100703.95
2018-06-29T10:32:26.880Z,100694.00
2018-06-29T10:34:54.956Z,100695.23
2018-06-29T10:37:23.020Z,100697.23
2018-06-29T10:39:51.042Z,100683.23
2018-06-29T10:42:19.072Z,100697.80
2018-06-29T10:44:47.295Z,100689.98
2018-06-29T10:47:15.250Z,100681.22
2018-06-29T10:49:43.324Z,100677.56
2018-06-29T10:52:11.364Z,100682.79
2018-06-29T10:54:39.408Z,100684.22
2018-06-29T10:57:07.790Z,100683.03
2018-06-29T10:59:35.959Z,100680.25
2018-06-29T11:02:04.020Z,100673.67
2018-06-29T11:04:32.108Z,100673.61
2018-06-29T11:07:00.308Z,100676.20
2018-06-29T11:09:28.363Z,100671.38
2018-06-29T11:11:56.460Z,100674.45
2018-06-29T11:14:24.584Z,100664.95
2018-06-29T11:16:52.683Z,100663.21
2018-06-29T11:19:21.054Z,100667.53
2018-06-29T11:21:49.178Z,100659.53
2018-06-29T11:24:17.627Z,100656.38
2018-06-29T11:26:45.704Z,100659.95
2018-06-29T11:29:13.938Z,100655.16
2018-06-29T11:31:42.928Z,100655.74
2018-06-29T11:34:12.607Z,100650.16
2018-06-29T11:36:40.697Z,100650.25
2018-06-29T11:39:11.384Z,100648.94
2018-06-29T11:41:39.599Z,100645.69
2018-06-29T11:44:07.697Z,100648.77
2018-06-29T11:46:35.925Z,100653.44
2018-06-29T11:49:03.991Z,100656.94
2018-06-29T11:51:32.064Z,100648.19
2018-06-29T11:54:00.031Z,100639.50
2018-06-29T11:56:28.032Z,100628.31
2018-06-29T11:58:56.121Z,100631.69
2018-06-29T12:01:25.047Z,100634.36
2018-06-29T12:03:53.109Z,100630.83
2018-06-29T12:06:21.148Z,100635.46
2018-06-29T12:08:49.156Z,100626.36
2018-06-29T12:11:17.196Z,100621.78
2018-06-29T12:13:45.229Z,100607.31
2018-06-29T12:16:13.260Z,100609.80
2018-06-29T12:18:41.308Z,100613.30
2018-06-29T12:21:09.363Z,100616.50
2018-06-29T12:23:37.400Z,100607.61
2018-06-29T12:26:05.669Z,100610.08
2018-06-29T12:28:33.716Z,100611.22
2018-06-29T12:31:01.763Z,100608.70
2018-06-29T12:33:29.812Z,100598.04
2018-06-29T12:35:57.853Z,100602.61
2018-06-29T12:38:25.907Z,100597.38
2018-06-29T12:40:54.164Z,100604.06
2018-06-29T12:43:22.464Z,100597.95
2018-06-29T12:45:50.940Z,100592.99
2018-06-29T12:48:19.190Z,100584.15
2018-06-29T12:50:47.500Z,100579.77
2018-06-29T12:53:16.167Z,100592.38
2018-06-29T12:55:44.706Z,100587.50
2018-06-29T12:58:13.372Z,100581.52
2018-06-29T13:00:42.226Z,100584.84
2018-06-29T13:03:11.005Z,100578.06
2018-06-29T13:05:39.723Z,100580.59
2018-06-29T13:08:08.392Z,100573.43
2018-06-29T13:10:36.710Z,100568.77
2018-06-29T13:13:04.936Z,100566.38
2018-06-29T13:15:32.985Z,100570.59
2018-06-29T13:18:01.040Z,100567.91
2018-06-29T13:20:29.097Z,100558.33
2018-06-29T13:22:57.159Z,100553.15
2018-06-29T13:25:25.204Z,100550.34
2018-06-29T13:27:53.248Z,100570.59
2018-06-29T13:30:21.516Z,100552.77
2018-06-29T13:32:49.763Z,100553.77
2018-06-29T13:35:18.415Z,100547.27
2018-06-29T13:37:46.824Z,100549.20
2018-06-29T13:40:15.083Z,100551.45
2018-06-29T13:42:43.831Z,100537.11
2018-06-29T13:45:12.706Z,100541.41
2018-06-29T13:47:41.521Z,100532.33
2018-06-29T13:50:10.270Z,100535.95
2018-06-29T13:52:39.107Z,100530.75
2018-06-29T13:55:07.563Z,100531.06
2018-06-29T13:57:35.828Z,100531.07
2018-06-29T14:00:03.937Z,100517.83
2018-06-29T14:02:32.032Z,100512.16
2018-06-29T14:05:00.028Z,100514.36
2018-06-29T14:07:28.067Z,100509.31
2018-06-29T14:09:56.168Z,100504.59
2018-06-29T14:12:24.332Z,100513.25
2018-06-29T14:14:52.524Z,100519.09
2018-06-29T14:17:20.644Z,100507.91
2018-06-29T14:19:48.923Z,100503.20
2018-06-29T14:22:17.424Z,100515.78
2018-06-29T14:24:45.604Z,100504.46
2018-06-29T14:27:14.049Z,100504.75
2018-06-29T14:29:42.705Z,100495.13
2018-06-29T14:32:11.479Z,100492.77
2018-06-29T14:34:40.686Z,100490.42
2018-06-29T14:37:09.298Z,100495.14
2018-06-29T14:39:37.563Z,100489.31
2018-06-29T14:42:05.970Z,100483.66
2018-06-29T14:44:34.109Z,100496.26
2018-06-29T14:47:02.167Z,100480.02
2018-06-29T14:49:30.207Z,100478.91
2018-06-29T14:51:58.229Z,100476.24
2018-06-29T14:54:26.272Z,100471.81
2018-06-29T14:56:54.932Z,100465.53
2018-06-29T14:59:23.474Z,100461.43
2018-06-29T15:01:51.768Z,100464.91
2018-06-29T15:04:20.264Z,100461.42
2018-06-29T15:06:48.832Z,100453.70
2018-06-29T15:09:17.183Z,100453.70
2018-06-29T15:11:45.521Z,100447.39
2018-06-29T15:14:14.205Z,100444.86
2018-06-29T15:16:43.116Z,100443.31
2018-06-29T15:19:11.844Z,100439.70
2018-06-29T15:21:40.918Z,100442.99
2018-06-29T15:24:10.593Z,100438.56
2018-06-29T15:26:38.867Z,100440.92
2018-06-29T15:29:07.000Z,100435.75
2018-06-29T15:31:35.047Z,100443.00
2018-06-29T15:34:03.037Z,100441.42
2018-06-29T15:36:31.067Z,100443.95
2018-06-29T15:38:59.089Z,100435.75
2018-06-29T15:41:27.116Z,100439.70
2018-06-29T15:43:55.159Z,100440.47
2018-06-29T15:46:23.253Z,100436.22
2018-06-29T15:48:51.575Z,100426.92
2018-06-29T15:51:20.171Z,100431.64
2018-06-29T15:53:48.553Z,100434.64
2018-06-29T15:56:17.200Z,100425.52
2018-06-29T15:58:45.579Z,100432.77
2018-06-29T16:01:17.582Z,100430.87
2018-06-29T16:03:45.980Z,100426.14
2018-06-29T16:06:14.432Z,100425.52
2018-06-29T16:08:43.619Z,100427.24
2018-06-29T16:11:12.568Z,100431.66
2018-06-29T16:13:41.517Z,100427.87
2018-06-29T16:16:10.932Z,100431.34
2018-06-29T16:18:39.612Z,100425.50
2018-06-29T16:21:08.943Z,100435.92
2018-06-29T16:23:37.129Z,100423.16
2018-06-29T16:26:05.170Z,100426.77
2018-06-29T16:28:33.220Z,100423.95
2018-06-29T16:31:01.272Z,100416.54
2018-06-29T16:33:29.304Z,100422.34
2018-06-29T16:35:57.512Z,100417.31
2018-06-29T16:38:25.553Z,100423.77
2018-06-29T16:40:53.695Z,100419.36
2018-06-29T16:43:21.701Z,100426.77
2018-06-29T16:45:49.716Z,100432.75
2018-06-29T16:48:17.915Z,100421.06
2018-06-29T16:50:46.026Z,100431.13
2018-06-29T16:53:14.023Z,100429.50
2018-06-29T16:55:42.067Z,100430.77
2018-06-29T16:58:10.089Z,100434.71
2018-06-29T17:00:38.145Z,100434.06
2018-06-29T17:03:06.555Z,100437.20
2018-06-29T17:05:34.588Z,100427.43
2018-06-29T17:08:02.592Z,100434.00
2018-06-29T17:10:30.641Z,100435.52
2018-06-29T17:12:58.686Z,100429.65
2018-06-29T17:15:26.716Z,100440.44
2018-06-29T17:17:54.730Z,100436.81
2018-06-29T17:20:22.776Z,100435.04
2018-06-29T17:22:50.809Z,100433.00
2018-06-29T17:25:19.471Z,100437.56
2018-06-29T17:27:47.488Z,100438.44
2018-06-29T17:30:15.539Z,100442.02
2018-06-29T17:32:43.548Z,100436.17
2018-06-29T17:35:11.574Z,100440.37
2018-06-29T17:37:39.584Z,100437.97
2018-06-29T17:40:07.667Z,100441.22
2018-06-29T17:42:35.746Z,100441.63
2018-06-29T17:45:03.764Z,100441.66
2018-06-29T17:47:31.782Z,100446.14
2018-06-29T17:49:59.839Z,100440.19
2018-06-29T17:52:27.895Z,100448.11
2018-06-29T17:54:56.021Z,100444.05
2018-06-29T17:57:24.056Z,100446.63
2018-06-29T17:59:52.135Z,100437.63
2018-06-29T18:02:20.227Z,100441.20
2018-06-29T18:04:48.223Z,100432.34
2018-06-29T18:07:16.299Z,100433.39
2018-06-29T18:09:44.356Z,100431.66
2018-06-29T18:12:12.715Z,100437.73
2018-06-29T18:14:40.715Z,100438.50
2018-06-29T18:17:08.727Z,100435.22
2018-06-29T18:19:36.763Z,100430.89
2018-06-29T18:22:04.787Z,100439.20
2018-06-29T18:24:32.815Z,100443.20
2018-06-29T18:27:00.848Z,100439.99
2018-06-29T18:29:29.207Z,100446.44
2018-06-29T18:31:57.218Z,100440.61
2018-06-29T18:34:25.251Z,100442.94
2018-06-29T18:36:53.518Z,100441.13
2018-06-29T18:39:21.633Z,100437.30
2018-06-29T18:41:49.667Z,100441.10
2018-06-29T18:44:17.800Z,100449.77
2018-06-29T18:46:45.936Z,100445.39
2018-06-29T18:49:13.976Z,100450.06
2018-06-29T18:51:42.037Z,100447.28
2018-06-29T18:54:10.347Z,100449.85
2018-06-29T18:56:38.573Z,100455.45
2018-06-29T18:59:06.761Z,100449.34
2018-06-29T19:01:34.867Z,100452.08
2018-06-29T19:04:03.396Z,100448.67
2018-06-29T19:06:31.500Z,100448.45
2018-06-29T19:08:59.552Z,100447.61
2018-06-29T19:11:27.619Z,100449.39
2018-06-29T19:13:55.771Z,100454.42
2018-06-29T19:16:23.823Z,100448.64
2018-06-29T19:18:51.896Z,100451.14
2018-06-29T19:21:20.035Z,100461.10
2018-06-29T19:23:48.539Z,100454.19
2018-06-29T19:26:16.857Z,100455.66
2018-06-29T19:28:45.260Z,100454.73
2018-06-29T19:31:14.030Z,100461.53
2018-06-29T19:33:42.675Z,100458.41
2018-06-29T19:36:10.882Z,100459.92
2018-06-29T19:38:39.197Z,100458.87
2018-06-29T19:41:07.448Z,100452.36
2018-06-29T19:43:35.533Z,100459.30
2018-06-29T19:46:03.635Z,100456.94
2018-06-29T19:48:31.822Z,100461.75
2018-06-29T19:50:59.957Z,100472.37
2018-06-29T19:53:28.376Z,100463.58
2018-06-29T19:55:56.433Z,100470.42
2018-06-29T19:58:24.490Z,100479.62
2018-06-29T20:00:52.567Z,100486.83
2018-06-29T20:03:20.708Z,100491.64
2018-06-29T20:05:49.133Z,100494.06
2018-06-29T20:08:17.586Z,100493.23
2018-06-29T20:10:45.825Z,100491.07
2018-06-29T20:13:14.127Z,100496.06
2018-06-29T20:15:42.578Z,100492.78
2018-06-29T20:18:11.359Z,100497.25
2018-06-29T20:20:39.903Z,100498.78
2018-06-29T20:23:08.343Z,100498.59
2018-06-29T20:25:36.429Z,100500.11
2018-06-29T20:28:04.957Z,100506.05
2018-06-29T20:30:32.992Z,100513.03
2018-06-29T20:33:01.244Z,100512.29
2018-06-29T20:35:29.577Z,100512.05
2018-06-29T20:37:57.635Z,100511.09
2018-06-29T20:40:25.663Z,100513.92
2018-06-29T20:42:53.728Z,100510.76
2018-06-29T20:45:21.814Z,100517.09
2018-06-29T20:47:49.968Z,100522.95
2018-06-29T20:50:18.165Z,100528.37
2018-06-29T20:52:46.724Z,100527.16
2018-06-29T20:55:14.894Z,100523.55
2018-06-29T20:57:43.409Z,100529.05
2018-06-29T21:00:11.977Z,100532.27
2018-06-29T21:02:40.206Z,100531.71
2018-06-29T21:05:08.264Z,100533.77
2018-06-29T21:07:36.291Z,100533.41
2018-06-29T21:10:04.729Z,100533.66
2018-06-29T21:12:32.794Z,100531.94
2018-06-29T21:15:00.838Z,100534.19
2018-06-29T21:17:29.053Z,100532.28
2018-06-29T21:19:57.091Z,100536.78
2018-06-29T21:22:25.179Z,100540.11
2018-06-29T21:24:53.246Z,100542.24
2018-06-29T21:27:21.396Z,100545.13
2018-06-29T21:29:49.644Z,100549.94
2018-06-29T21:32:17.935Z,100545.97
2018-06-29T21:34:46.204Z,100546.64
2018-06-29T21:37:14.476Z,100553.02
2018-06-29T21:39:43.258Z,100551.69
2018-06-29T21:42:11.667Z,100550.33
2018-06-29T21:44:40.113Z,100555.56
2018-06-29T21:47:08.361Z,100551.20
2018-06-29T21:49:36.340Z,100555.20
2018-06-29T21:52:04.496Z,100551.07
2018-06-29T21:54:32.558Z,100557.68
2018-06-29T21:57:00.599Z,100555.78
2018-06-29T21:59:28.640Z,100562.09
2018-06-29T22:01:56.680Z,100554.52
2018-06-29T22:04:24.740Z,100558.98
2018-06-29T22:06:52.787Z,100560.82
2018-06-29T22:09:20.820Z,100551.67
2018-06-29T22:11:48.864Z,100552.77
2018-06-29T22:14:16.905Z,100551.83
2018-06-29T22:16:44.967Z,100559.26
2018-06-29T22:19:13.014Z,100565.48
2018-06-29T22:21:41.071Z,100560.72
2018-06-29T22:24:09.107Z,100558.17
2018-06-29T22:26:37.131Z,100553.39
2018-06-29T22:29:05.176Z,100539.36
2018-06-29T22:31:33.220Z,100565.05
2018-06-29T22:34:01.276Z,100559.08
2018-06-29T22:36:29.312Z,100559.92
2018-06-29T22:38:57.379Z,100558.55
2018-06-29T22:41:25.417Z,100559.78
2018-06-29T22:43:53.471Z,100559.80
2018-06-29T22:46:21.527Z,100568.22
2018-06-29T22:48:49.578Z,100560.50
2018-06-29T22:51:17.618Z,100559.73
2018-06-29T22:53:45.655Z,100558.58
2018-06-29T22:56:13.696Z,100563.98
2018-06-29T22:58:41.735Z,100561.81
2018-06-29T23:01:09.849Z,100567.83
2018-06-29T23:03:43.283Z,100564.27
2018-06-29T23:06:11.445Z,100566.48
2018-06-29T23:08:39.468Z,100570.73
2018-06-29T23:11:07.494Z,100573.55
2018-06-29T23:13:35.551Z,100575.11
2018-06-29T23:16:03.608Z,100575.93
2018-06-29T23:18:31.780Z,100577.33
2018-06-29T23:20:59.871Z,100571.14
2018-06-29T23:23:27.880Z,100568.36
2018-06-29T23:25:55.936Z,100573.36
2018-06-29T23:28:23.977Z,100572.81
2018-06-29T23:30:52.043Z,100565.03
2018-06-29T23:33:20.087Z,100571.02
2018-06-29T23:35:48.131Z,100576.08
2018-06-29T23:38:16.154Z,100578.06
2018-06-29T23:40:44.179Z,100572.68
2018-06-29T23:43:12.210Z,100543.80
2018-06-29T23:45:40.253Z,100574.27
2018-06-29T23:48:08.303Z,100573.50
2018-06-29T23:50:36.537Z,100573.72
2018-06-29T23:53:04.624Z,100575.33
2018-06-29T23:55:32.672Z,100575.13
2018-06-29T23:58:00.810Z,100572.72
